Time;durP1;ratioP1;P1;durP2;ratioP2;P2;SDS_P1;SDS_P2;PMS_P1;PMS_P2;Temp;Humidity;BMP_temperature;BMP_pressure;BME280_temperature;BME280_humidity;BME280_pressure;Samples;Min_cycle;Max_cycle;Signal;HPM_P1;HPM_P2
2022/11/28 06:00:26;;;;;;;5.50;5.00;;;8.50;97.20;;;;;;1714833;28;20237;-78
2022/11/28 06:01:19;;;;;;;6.10;5.50;;;8.50;97.20;;;;;;1714893;28;20229;-79
2022/11/28 06:02:10;;;;;;;5.70;5.20;;;8.50;97.20;;;;;;1714840;28;20730;-78
2022/11/28 06:03:02;;;;;;;6.82;6.22;;;8.50;97.20;;;;;;1714660;28;20214;-78
2022/11/28 06:03:59;;;;;;;6.07;5.47;;;8.50;97.20;;;;;;1714628;28;20216;-78
2022/11/28 06:04:50;;;;;;;6.93;6.22;;;8.50;97.20;;;;;;1714663;28;20190;-77
2022/11/28 06:05:43;;;;;;;8.40;7.40;;;8.50;97.20;;;;;;1714536;28;20202;-78
2022/11/28 06:06:34;;;;;;;6.50;5.90;;;8.50;97.20;;;;;;1714541;28;20670;-77
2022/11/28 06:07:26;;;;;;;6.47;5.88;;;8.50;97.20;;;;;;1714564;28;20257;-78
2022/11/28 06:08:17;;;;;;;5.95;5.30;;;8.50;97.20;;;;;;1714221;28;20202;-78
2022/11/28 06:09:09;;;;;;;5.70;5.20;;;8.50;97.20;;;;;;1713722;28;20202;-75
2022/11/28 06:09:59;;;;;;;5.57;4.97;;;8.50;97.20;;;;;;1713875;28;20213;-75
2022/11/28 06:10:56;;;;;;;6.47;5.80;;;8.50;97.20;;;;;;1713571;28;20228;-75
2022/11/28 06:11:47;;;;;;;7.00;5.80;;;8.50;97.20;;;;;;1714176;28;20278;-76
2022/11/28 06:12:39;;;;;;;6.20;5.60;;;8.50;97.20;;;;;;1714255;28;20252;-75
2022/11/28 06:13:30;;;;;;;6.78;6.13;;;8.50;97.20;;;;;;1714331;28;20449;-75
2022/11/28 06:14:21;;;;;;;7.53;6.27;;;8.50;97.20;;;;;;1714221;28;20204;-75
2022/11/28 06:15:12;;;;;;;7.57;6.88;;;8.50;97.20;;;;;;1714142;28;20598;-75
2022/11/28 06:16:08;;;;;;;7.63;6.80;;;8.50;97.20;;;;;;1714375;28;20206;-74
2022/11/28 06:16:59;;;;;;;6.95;6.35;;;8.50;97.20;;;;;;1714065;28;20213;-75
2022/11/28 06:17:51;;;;;;;7.30;6.60;;;8.50;97.20;;;;;;1714220;28;20225;-75
2022/11/28 06:18:42;;;;;;;7.15;6.45;;;8.40;97.20;;;;;;1713450;28;21011;-75
2022/11/28 06:19:34;;;;;;;8.75;7.13;;;8.40;97.20;;;;;;1713940;28;20197;-74
2022/11/28 06:20:25;;;;;;;6.95;6.25;;;8.40;97.20;;;;;;1714132;28;20598;-76
2022/11/28 06:21:16;;;;;;;7.10;6.43;;;8.40;97.20;;;;;;1714194;28;20194;-74
2022/11/28 06:22:08;;;;;;;6.75;6.15;;;8.40;97.20;;;;;;1714159;28;20214;-73
2022/11/28 06:23:00;;;;;;;7.55;6.60;;;8.40;97.20;;;;;;1714284;28;20572;-74
2022/11/28 06:23:51;;;;;;;8.07;7.18;;;8.40;97.20;;;;;;1714170;28;20206;-72
2022/11/28 06:24:43;;;;;;;7.75;7.05;;;8.40;97.20;;;;;;1714116;28;20202;-72
2022/11/28 06:25:34;;;;;;;7.40;6.70;;;8.40;97.20;;;;;;1714067;28;20206;-74
2022/11/28 06:26:27;;;;;;;7.17;5.77;;;8.40;97.20;;;;;;1714304;28;20205;-74
2022/11/28 06:27:18;;;;;;;6.85;6.25;;;8.40;97.20;;;;;;1714047;28;20684;-74
2022/11/28 06:28:09;;;;;;;10.00;7.00;;;8.40;97.20;;;;;;1714082;28;20556;-74
2022/11/28 06:29:00;;;;;;;6.70;6.10;;;8.40;97.20;;;;;;1713674;28;20212;-74
2022/11/28 06:29:52;;;;;;;8.27;6.30;;;8.40;97.20;;;;;;1713963;28;20304;-73
2022/11/28 06:30:43;;;;;;;7.07;6.38;;;8.40;97.20;;;;;;1709586;28;20230;-74
2022/11/28 06:31:36;;;;;;;6.03;5.43;;;8.40;97.20;;;;;;1707484;28;20249;-74
2022/11/28 06:32:27;;;;;;;8.13;7.05;;;8.40;97.20;;;;;;1707553;28;20603;-74
2022/11/28 06:33:18;;;;;;;7.30;6.60;;;8.40;97.20;;;;;;1707486;28;20198;-73
2022/11/28 06:34:10;;;;;;;9.57;7.25;;;8.40;97.20;;;;;;1707447;28;20221;-73
2022/11/28 06:35:01;;;;;;;8.38;7.45;;;8.40;97.20;;;;;;1707593;28;20199;-74
2022/11/28 06:35:59;;;;;;;9.95;8.05;;;8.40;97.20;;;;;;1707067;28;20206;-74
2022/11/28 06:36:50;;;;;;;10.30;8.52;;;8.40;97.20;;;;;;1707308;28;20618;-73
2022/11/28 06:37:41;;;;;;;11.35;8.73;;;8.40;97.20;;;;;;1707322;28;20241;-74
2022/11/28 06:38:33;;;;;;;11.70;9.60;;;8.40;97.20;;;;;;1707026;28;20293;-74
2022/11/28 06:39:24;;;;;;;10.07;8.27;;;8.40;97.20;;;;;;1707509;28;20589;-74
2022/11/28 06:40:16;;;;;;;13.37;10.30;;;8.40;97.20;;;;;;1706998;28;20752;-74
2022/11/28 06:41:10;;;;;;;11.48;10.18;;;8.40;97.20;;;;;;1706860;28;20233;-73
2022/11/28 06:42:02;;;;;;;12.48;10.32;;;8.40;97.20;;;;;;1707486;28;20286;-73
2022/11/28 06:42:53;;;;;;;11.75;8.90;;;8.40;97.20;;;;;;1707325;28;20217;-76
2022/11/28 06:43:44;;;;;;;10.73;9.63;;;8.30;97.20;;;;;;1706764;28;20194;-75
2022/11/28 06:44:35;;;;;;;13.85;9.13;;;8.30;97.20;;;;;;1707387;28;20584;-75
2022/11/28 06:45:27;;;;;;;10.23;8.97;;;8.30;97.20;;;;;;1706885;28;20220;-76
2022/11/28 06:46:20;;;;;;;10.65;9.15;;;8.30;97.20;;;;;;1707416;28;20210;-76
2022/11/28 06:47:13;;;;;;;10.65;8.45;;;8.30;97.20;;;;;;1707123;28;20668;-76
2022/11/28 06:48:04;;;;;;;11.80;9.00;;;8.30;97.20;;;;;;1707378;28;20664;-76
2022/11/28 06:48:56;;;;;;;12.15;8.40;;;8.30;97.20;;;;;;1706810;28;20198;-76
2022/11/28 06:49:47;;;;;;;8.55;7.43;;;8.40;97.20;;;;;;1707469;28;20209;-76
2022/11/28 06:50:39;;;;;;;7.70;6.82;;;8.30;97.20;;;;;;1707304;28;20693;-76
2022/11/28 06:51:30;;;;;;;11.38;8.75;;;8.40;97.20;;;;;;1707316;28;20214;-75
2022/11/28 06:52:21;;;;;;;12.90;9.20;;;8.40;97.20;;;;;;1707393;28;20801;-74
2022/11/28 06:53:13;;;;;;;11.13;9.90;;;8.40;97.20;;;;;;1707339;28;20680;-73
2022/11/28 06:54:06;;;;;;;11.48;10.25;;;8.40;97.20;;;;;;1707567;28;20217;-75
2022/11/28 06:54:56;;;;;;;12.90;11.15;;;8.40;97.20;;;;;;1706793;28;20684;-76
2022/11/28 06:55:48;;;;;;;15.63;11.17;;;8.40;97.20;;;;;;1707392;28;20973;-76
2022/11/28 06:56:39;;;;;;;16.58;12.60;;;8.40;97.20;;;;;;1707137;28;20198;-77
2022/11/28 06:57:31;;;;;;;14.38;12.88;;;8.40;97.20;;;;;;1707200;28;20206;-75
2022/11/28 06:58:22;;;;;;;16.15;13.88;;;8.40;97.20;;;;;;1706946;28;20210;-74
2022/11/28 06:59:14;;;;;;;17.80;13.17;;;8.40;97.20;;;;;;1707241;28;20206;-76
2022/11/28 07:00:06;;;;;;;15.85;13.65;;;8.40;97.20;;;;;;1707281;28;20206;-76
2022/11/28 07:00:57;;;;;;;13.30;11.90;;;8.40;97.20;;;;;;1713465;28;20256;-76
2022/11/28 07:01:48;;;;;;;14.95;12.02;;;8.40;97.20;;;;;;1713913;28;20206;-76
2022/11/28 07:02:41;;;;;;;14.00;11.90;;;8.40;97.20;;;;;;1714012;28;20655;-77
2022/11/28 07:03:32;;;;;;;11.95;10.20;;;8.40;97.20;;;;;;1713968;28;20213;-76
2022/11/28 07:04:24;;;;;;;11.43;8.97;;;8.40;97.20;;;;;;1713691;28;20686;-76
2022/11/28 07:05:15;;;;;;;11.52;8.80;;;8.40;97.20;;;;;;1713822;28;20213;-76
2022/11/28 07:06:08;;;;;;;7.65;6.90;;;8.40;97.20;;;;;;1713898;28;20201;-77
2022/11/28 07:06:59;;;;;;;7.90;7.20;;;8.30;97.20;;;;;;1713805;28;20209;-77
2022/11/28 07:07:50;;;;;;;8.27;7.30;;;8.30;97.20;;;;;;1714031;28;20207;-79
2022/11/28 07:08:42;;;;;;;6.55;5.95;;;8.30;97.20;;;;;;1706397;28;20197;-76
2022/11/28 07:09:33;;;;;;;8.30;6.78;;;8.30;97.20;;;;;;1704505;29;20202;-77
2022/11/28 07:10:26;;;;;;;6.40;5.80;;;8.40;97.20;;;;;;1706747;28;20199;-77
2022/11/28 07:11:20;;;;;;;6.28;5.68;;;8.40;97.20;;;;;;1707004;28;20652;-77
2022/11/28 07:12:10;;;;;;;6.63;6.05;;;8.40;97.20;;;;;;1707217;28;20218;-76
2022/11/28 07:13:02;;;;;;;6.90;5.73;;;8.40;97.20;;;;;;1707344;28;20230;-76
2022/11/28 07:13:54;;;;;;;6.65;5.90;;;8.30;97.20;;;;;;1707294;28;20217;-76
2022/11/28 07:14:45;;;;;;;7.07;6.35;;;8.30;97.20;;;;;;1707317;28;20209;-76
2022/11/28 07:15:36;;;;;;;6.53;5.93;;;8.30;97.20;;;;;;1707940;28;20716;-77
2022/11/28 07:16:30;;;;;;;6.70;5.80;;;8.30;97.20;;;;;;1707023;28;20652;-76
2022/11/28 07:17:20;;;;;;;6.78;5.75;;;8.30;97.20;;;;;;1706920;28;20680;-76
2022/11/28 07:18:13;;;;;;;6.93;6.27;;;8.30;97.20;;;;;;1705974;28;21091;-77
2022/11/28 07:19:04;;;;;;;6.63;6.03;;;8.30;97.20;;;;;;1706254;28;20202;-77
2022/11/28 07:19:56;;;;;;;7.50;6.70;;;8.30;97.20;;;;;;1706428;28;20206;-77
2022/11/28 07:20:46;;;;;;;7.60;6.90;;;8.30;97.20;;;;;;1706252;28;20289;-76
2022/11/28 07:21:38;;;;;;;8.00;7.20;;;8.30;97.20;;;;;;1705890;28;20256;-76
2022/11/28 07:22:29;;;;;;;7.60;6.90;;;8.30;97.20;;;;;;1706603;28;20234;-77
2022/11/28 07:23:21;;;;;;;9.10;7.40;;;8.30;97.20;;;;;;1706698;28;20290;-77
2022/11/28 07:24:12;;;;;;;8.05;7.25;;;8.40;97.20;;;;;;1706758;28;20573;-77
2022/11/28 07:25:04;;;;;;;8.10;7.30;;;8.30;97.20;;;;;;1706586;28;20573;-77
2022/11/28 07:25:58;;;;;;;7.55;6.75;;;8.30;97.20;;;;;;1706786;28;20672;-77
2022/11/28 07:26:50;;;;;;;6.85;6.15;;;8.30;97.20;;;;;;1706583;28;20254;-77
2022/11/28 07:27:41;;;;;;;8.98;6.60;;;8.30;97.20;;;;;;1706907;28;20207;-77
2022/11/28 07:28:34;;;;;;;6.85;5.88;;;8.30;97.20;;;;;;1706128;28;20664;-77
2022/11/28 07:29:30;;;;;;;7.20;6.50;;;8.30;97.20;;;;;;1706885;28;20213;-77
2022/11/28 07:30:22;;;;;;;7.35;6.63;;;8.30;97.20;;;;;;1706251;28;20763;-77
2022/11/28 07:31:14;;;;;;;6.68;6.03;;;8.40;97.20;;;;;;1706706;28;20207;-76
2022/11/28 07:32:07;;;;;;;7.20;6.50;;;8.40;97.20;;;;;;1706655;28;20210;-76
2022/11/28 07:32:57;;;;;;;6.90;6.15;;;8.40;97.20;;;;;;1706779;28;20605;-77
2022/11/28 07:33:51;;;;;;;8.37;7.47;;;8.40;97.20;;;;;;1706788;28;20582;-76
2022/11/28 07:34:44;;;;;;;7.80;7.10;;;8.40;97.20;;;;;;1707201;28;20210;-77
2022/11/28 07:35:35;;;;;;;8.82;7.93;;;8.40;97.20;;;;;;1707408;28;20233;-77
2022/11/28 07:36:27;;;;;;;9.48;8.38;;;8.40;97.20;;;;;;1707302;28;20206;-77
2022/11/28 07:37:19;;;;;;;9.57;8.30;;;8.40;97.20;;;;;;1707806;28;20285;-77
2022/11/28 07:38:09;;;;;;;9.32;8.18;;;8.40;97.20;;;;;;1709000;28;20265;-76
2022/11/28 07:39:03;;;;;;;9.20;8.30;;;8.30;97.20;;;;;;1707116;28;20206;-77
2022/11/28 07:39:53;;;;;;;9.43;8.30;;;8.40;97.20;;;;;;1707064;28;20217;-77
2022/11/28 07:40:45;;;;;;;10.00;8.63;;;8.30;97.20;;;;;;1707233;28;20257;-77
2022/11/28 07:41:36;;;;;;;9.82;8.82;;;8.40;97.20;;;;;;1706897;28;20704;-77
2022/11/28 07:42:28;;;;;;;10.23;9.23;;;8.40;97.20;;;;;;1707221;28;20668;-77
2022/11/28 07:43:18;;;;;;;11.45;10.20;;;8.40;97.20;;;;;;1707454;28;20206;-77
2022/11/28 07:44:11;;;;;;;11.13;9.93;;;8.40;97.20;;;;;;1707141;28;20202;-77
2022/11/28 07:45:03;;;;;;;11.18;10.07;;;8.40;97.20;;;;;;1707424;28;20209;-77
2022/11/28 07:45:54;;;;;;;9.50;8.15;;;8.40;97.20;;;;;;1707118;28;20599;-77
2022/11/28 07:46:45;;;;;;;9.82;8.02;;;8.40;97.20;;;;;;1707163;28;20214;-76
2022/11/28 07:47:37;;;;;;;8.43;7.60;;;8.40;97.20;;;;;;1707164;28;20209;-77
2022/11/28 07:48:28;;;;;;;7.80;7.10;;;8.40;97.20;;;;;;1706661;28;20813;-77
2022/11/28 07:49:21;;;;;;;7.70;7.07;;;8.40;97.20;;;;;;1707191;28;20295;-77
2022/11/28 07:50:12;;;;;;;7.22;6.63;;;8.40;97.20;;;;;;1706857;28;20447;-76
2022/11/28 07:51:06;;;;;;;7.50;6.80;;;8.40;97.20;;;;;;1707251;28;20309;-77
2022/11/28 07:51:57;;;;;;;7.30;6.60;;;8.40;97.20;;;;;;1707132;28;20661;-77
2022/11/28 07:52:50;;;;;;;6.85;6.20;;;8.40;97.20;;;;;;1707195;28;20326;-77
2022/11/28 07:53:42;;;;;;;7.75;7.05;;;8.40;97.20;;;;;;1707386;28;20202;-77
2022/11/28 07:54:34;;;;;;;8.45;7.55;;;8.40;97.20;;;;;;1707113;28;20206;-77
2022/11/28 07:55:24;;;;;;;8.05;7.25;;;8.40;97.20;;;;;;1706943;28;20587;-76
2022/11/28 07:56:17;;;;;;;8.17;7.10;;;8.40;97.20;;;;;;1707282;28;20620;-77
2022/11/28 07:57:08;;;;;;;8.88;7.65;;;8.50;97.20;;;;;;1706824;28;20539;-77
2022/11/28 07:58:00;;;;;;;9.37;8.33;;;8.50;97.20;;;;;;1707114;28;20203;-77
2022/11/28 07:58:51;;;;;;;9.40;7.63;;;8.50;97.20;;;;;;1706706;28;20450;-76
2022/11/28 07:59:43;;;;;;;9.23;8.43;;;8.50;97.20;;;;;;1707152;28;20190;-77
2022/11/28 08:00:34;;;;;;;9.80;8.90;;;8.50;97.20;;;;;;1707077;28;20234;-77
2022/11/28 08:01:28;;;;;;;11.47;10.37;;;8.50;97.20;;;;;;1707284;28;20201;-77
2022/11/28 08:02:19;;;;;;;11.63;10.43;;;8.50;97.20;;;;;;1707105;28;20203;-77
2022/11/28 08:03:10;;;;;;;10.53;9.53;;;8.50;97.20;;;;;;1707154;28;20206;-77
2022/11/28 08:04:02;;;;;;;11.93;10.73;;;8.50;97.20;;;;;;1707184;28;20206;-77
2022/11/28 08:04:55;;;;;;;12.75;9.75;;;8.50;97.20;;;;;;1707148;28;20751;-77
2022/11/28 08:05:48;;;;;;;10.35;9.25;;;8.50;97.20;;;;;;1707198;28;20244;-77
2022/11/28 08:06:42;;;;;;;9.45;8.43;;;8.60;97.20;;;;;;1706962;28;20257;-77
2022/11/28 08:07:32;;;;;;;7.95;7.15;;;8.60;97.20;;;;;;1707113;28;20206;-77
2022/11/28 08:08:24;;;;;;;8.63;7.83;;;8.60;97.20;;;;;;1706809;28;20198;-77
2022/11/28 08:09:15;;;;;;;8.38;7.50;;;8.60;97.20;;;;;;1706993;28;20206;-77
2022/11/28 08:10:08;;;;;;;10.03;8.00;;;8.60;97.20;;;;;;1707037;28;20217;-77
2022/11/28 08:11:00;;;;;;;10.32;7.85;;;8.60;97.20;;;;;;1706948;28;20226;-77
2022/11/28 08:11:52;;;;;;;9.02;8.13;;;8.60;97.20;;;;;;1706836;28;20234;-77
2022/11/28 08:12:43;;;;;;;9.77;8.77;;;8.60;97.20;;;;;;1707221;28;20217;-76
2022/11/28 08:13:35;;;;;;;9.50;8.67;;;8.60;97.20;;;;;;1706983;28;20201;-77
2022/11/28 08:14:27;;;;;;;11.00;9.45;;;8.60;97.20;;;;;;1706993;28;20462;-76
2022/11/28 08:15:19;;;;;;;9.98;8.98;;;8.60;97.20;;;;;;1707029;28;20207;-77
2022/11/28 08:16:13;;;;;;;12.05;9.48;;;8.60;97.20;;;;;;1707046;28;20211;-77
2022/11/28 08:17:04;;;;;;;10.75;9.30;;;8.60;97.20;;;;;;1707752;28;20203;-77
2022/11/28 08:17:55;;;;;;;12.50;9.35;;;8.70;97.20;;;;;;1708186;28;20202;-77
2022/11/28 08:18:48;;;;;;;10.57;9.50;;;8.70;97.20;;;;;;1707910;28;20294;-76
2022/11/28 08:19:40;;;;;;;10.40;9.13;;;8.70;97.20;;;;;;1708359;28;20207;-77
2022/11/28 08:20:32;;;;;;;10.18;9.18;;;8.70;97.20;;;;;;1708166;28;20221;-77
2022/11/28 08:21:25;;;;;;;10.40;8.65;;;8.70;97.20;;;;;;1708390;28;20265;-77
2022/11/28 08:22:16;;;;;;;10.07;9.00;;;8.70;97.20;;;;;;1708346;28;20210;-78
2022/11/28 08:23:08;;;;;;;10.20;9.23;;;8.80;97.20;;;;;;1708288;28;20695;-77
2022/11/28 08:24:01;;;;;;;11.77;9.55;;;8.80;97.20;;;;;;1708383;28;20202;-77
2022/11/28 08:24:52;;;;;;;9.35;8.45;;;8.80;97.20;;;;;;1708262;28;20282;-77
2022/11/28 08:25:44;;;;;;;9.40;8.00;;;8.80;97.20;;;;;;1707768;28;20218;-78
2022/11/28 08:26:35;;;;;;;10.02;8.35;;;8.80;97.20;;;;;;1708097;28;20206;-77
2022/11/28 08:27:27;;;;;;;10.75;8.23;;;8.80;97.20;;;;;;1708160;28;20199;-77
2022/11/28 08:28:17;;;;;;;8.75;7.80;;;8.80;97.20;;;;;;1708272;28;20191;-77
2022/11/28 08:29:10;;;;;;;8.70;7.67;;;8.80;97.20;;;;;;1707913;28;20657;-77
2022/11/28 08:30:00;;;;;;;10.13;7.68;;;8.80;97.20;;;;;;1708295;28;20215;-77
2022/11/28 08:30:52;;;;;;;6.70;6.00;;;8.90;97.20;;;;;;1708137;28;20230;-77
2022/11/28 08:31:43;;;;;;;8.85;6.93;;;8.90;97.20;;;;;;1708403;28;20301;-77
2022/11/28 08:32:35;;;;;;;7.63;6.93;;;8.90;97.20;;;;;;1708344;28;20210;-77
2022/11/28 08:33:26;;;;;;;7.45;5.68;;;8.90;97.20;;;;;;1708276;28;20209;-77
2022/11/28 08:34:18;;;;;;;6.68;5.50;;;8.90;97.20;;;;;;1708229;28;20216;-77
2022/11/28 08:35:08;;;;;;;6.82;6.13;;;8.90;97.20;;;;;;1708221;28;20217;-77
2022/11/28 08:36:03;;;;;;;7.07;6.30;;;8.90;97.20;;;;;;1708410;28;20211;-77
2022/11/28 08:36:54;;;;;;;7.28;5.88;;;8.90;97.20;;;;;;1708958;28;20576;-77
2022/11/28 08:37:46;;;;;;;6.53;5.77;;;8.90;97.20;;;;;;1709542;28;20564;-76
2022/11/28 08:38:37;;;;;;;6.13;5.05;;;8.90;97.20;;;;;;1707639;28;20227;-77
2022/11/28 08:39:29;;;;;;;6.32;5.40;;;8.90;97.20;;;;;;1708079;28;20219;-77
2022/11/28 08:40:20;;;;;;;6.10;5.57;;;8.90;97.20;;;;;;1708071;28;20202;-77
2022/11/28 08:41:13;;;;;;;9.27;7.23;;;8.90;97.20;;;;;;1708343;28;20202;-77
2022/11/28 08:42:04;;;;;;;6.50;5.90;;;8.90;97.20;;;;;;1708372;28;20214;-77
2022/11/28 08:42:58;;;;;;;6.07;5.00;;;8.90;97.20;;;;;;1708089;28;20205;-77
2022/11/28 08:43:49;;;;;;;6.00;5.40;;;8.90;97.20;;;;;;1708285;28;20210;-77
2022/11/28 08:44:41;;;;;;;6.10;5.50;;;8.90;97.20;;;;;;1708363;28;20202;-77
2022/11/28 08:45:31;;;;;;;6.47;5.53;;;8.90;97.20;;;;;;1708108;28;20202;-77
2022/11/28 08:46:23;;;;;;;5.07;4.67;;;9.00;97.20;;;;;;1708272;28;20209;-77
2022/11/28 08:47:14;;;;;;;5.72;5.22;;;9.00;97.20;;;;;;1707881;28;20211;-77
2022/11/28 08:48:07;;;;;;;5.47;4.97;;;9.00;97.20;;;;;;1708214;28;20202;-77
2022/11/28 08:48:58;;;;;;;6.00;5.40;;;9.00;97.20;;;;;;1707620;28;20446;-77
2022/11/28 08:49:49;;;;;;;6.20;5.40;;;9.00;97.20;;;;;;1708122;28;20214;-77
2022/11/28 08:50:46;;;;;;;8.00;5.93;;;9.00;97.20;;;;;;1708250;28;20465;-77
2022/11/28 08:51:39;;;;;;;6.70;6.00;;;9.00;97.20;;;;;;1708393;28;20191;-77
2022/11/28 08:52:30;;;;;;;6.65;6.00;;;9.00;97.20;;;;;;1708104;28;20206;-77
2022/11/28 08:53:21;;;;;;;6.97;6.27;;;9.00;97.20;;;;;;1708301;28;20203;-77
2022/11/28 08:54:12;;;;;;;6.35;5.13;;;9.00;97.20;;;;;;1708173;28;20206;-77
2022/11/28 08:55:04;;;;;;;6.07;5.47;;;9.00;97.20;;;;;;1708248;28;20217;-77
2022/11/28 08:55:55;;;;;;;6.22;5.60;;;9.00;97.20;;;;;;1707794;28;20209;-77
2022/11/28 08:56:47;;;;;;;6.10;5.50;;;9.00;97.20;;;;;;1708140;28;20217;-77
2022/11/28 08:57:39;;;;;;;6.88;5.10;;;9.00;97.20;;;;;;1708031;28;20508;-77
2022/11/28 08:58:30;;;;;;;6.97;5.80;;;9.00;97.20;;;;;;1707731;28;20229;-77
2022/11/28 08:59:22;;;;;;;6.40;5.57;;;9.00;97.20;;;;;;1708392;28;20664;-77
2022/11/28 09:00:14;;;;;;;6.80;6.07;;;9.00;97.20;;;;;;1707993;28;20684;-77
2022/11/28 09:01:14;;;;;;;5.72;5.10;;;9.00;97.20;;;;;;1708084;28;20203;-77
2022/11/28 09:02:08;;;;;;;7.22;5.65;;;9.00;97.20;;;;;;1708194;28;20214;-77
2022/11/28 09:02:59;;;;;;;8.30;6.50;;;9.00;97.20;;;;;;1707967;28;20218;-77
2022/11/28 09:03:52;;;;;;;7.63;5.70;;;9.00;97.20;;;;;;1708246;28;20290;-77
2022/11/28 09:04:43;;;;;;;7.30;6.63;;;9.00;97.20;;;;;;1708186;28;20211;-77
2022/11/28 09:05:35;;;;;;;7.50;6.73;;;9.00;97.20;;;;;;1708088;28;20206;-77
2022/11/28 09:06:25;;;;;;;7.32;6.22;;;9.00;97.20;;;;;;1708163;28;20461;-77
2022/11/28 09:07:19;;;;;;;7.23;6.27;;;9.10;97.20;;;;;;1707893;28;20290;-76
2022/11/28 09:08:10;;;;;;;6.95;5.90;;;9.10;97.20;;;;;;1708059;28;20207;-77
2022/11/28 09:09:02;;;;;;;6.72;6.03;;;9.10;97.20;;;;;;1707554;28;20205;-77
2022/11/28 09:09:52;;;;;;;7.95;5.75;;;9.10;97.20;;;;;;1707985;28;20202;-77
2022/11/28 09:10:45;;;;;;;6.90;6.00;;;9.10;97.20;;;;;;1708019;28;20231;-77
2022/11/28 09:11:36;;;;;;;6.25;5.30;;;9.10;97.20;;;;;;1708060;28;20235;-77
2022/11/28 09:12:28;;;;;;;5.32;4.82;;;9.10;97.20;;;;;;1707862;28;20206;-77
2022/11/28 09:13:19;;;;;;;5.82;5.13;;;9.10;97.20;;;;;;1708145;28;20202;-77
2022/11/28 09:14:11;;;;;;;5.40;4.90;;;9.20;97.20;;;;;;1707907;28;20199;-77
2022/11/28 09:15:01;;;;;;;8.63;6.03;;;9.20;97.20;;;;;;1708104;28;20202;-77
2022/11/28 09:15:54;;;;;;;6.17;5.57;;;9.20;97.20;;;;;;1708023;28;20213;-77
2022/11/28 09:16:45;;;;;;;6.90;6.18;;;9.20;97.20;;;;;;1707819;28;20203;-77
2022/11/28 09:17:36;;;;;;;8.07;6.82;;;9.20;97.20;;;;;;1707996;28;20218;-77
2022/11/28 09:18:28;;;;;;;9.80;6.87;;;9.20;97.20;;;;;;1707450;28;20285;-77
2022/11/28 09:19:20;;;;;;;12.32;7.47;;;9.20;97.20;;;;;;1707971;28;20213;-77
2022/11/28 09:20:11;;;;;;;7.40;6.38;;;9.20;97.20;;;;;;1707853;28;20610;-77
2022/11/28 09:21:07;;;;;;;9.05;6.55;;;9.20;97.20;;;;;;1708065;28;20245;-77
2022/11/28 09:21:58;;;;;;;10.13;6.40;;;9.20;97.20;;;;;;1707902;28;20246;-77
2022/11/28 09:22:51;;;;;;;7.60;5.80;;;9.20;97.20;;;;;;1708035;28;20214;-77
2022/11/28 09:23:43;;;;;;;6.78;5.32;;;9.20;97.20;;;;;;1708108;28;20218;-77
2022/11/28 09:24:35;;;;;;;9.23;5.13;;;9.20;97.20;;;;;;1707912;28;20226;-77
2022/11/28 09:25:26;;;;;;;5.32;4.82;;;9.20;97.20;;;;;;1708026;28;20556;-77
2022/11/28 09:26:20;;;;;;;5.70;4.78;;;9.20;97.20;;;;;;1707941;28;20207;-76
2022/11/28 09:27:10;;;;;;;5.85;4.38;;;9.20;97.20;;;;;;1707634;28;20673;-77
2022/11/28 09:28:02;;;;;;;5.87;5.20;;;9.20;97.20;;;;;;1707660;28;20649;-77
2022/11/28 09:28:53;;;;;;;5.38;4.88;;;9.30;97.20;;;;;;1707072;28;20703;-77
2022/11/28 09:29:44;;;;;;;4.90;4.50;;;9.20;97.20;;;;;;1707893;28;20573;-77
2022/11/28 09:30:35;;;;;;;5.03;4.32;;;9.20;97.20;;;;;;1707805;28;20743;-77
2022/11/28 09:31:27;;;;;;;4.97;4.47;;;9.30;97.20;;;;;;1707938;28;20677;-77
2022/11/28 09:32:18;;;;;;;5.18;4.47;;;9.30;97.20;;;;;;1707906;28;20665;-77
2022/11/28 09:33:11;;;;;;;7.73;5.63;;;9.30;97.20;;;;;;1707971;28;20660;-76
2022/11/28 09:34:02;;;;;;;5.90;5.28;;;9.30;97.20;;;;;;1707878;28;20665;-77
2022/11/28 09:34:54;;;;;;;7.25;5.50;;;9.30;97.20;;;;;;1707811;28;20206;-77
2022/11/28 09:35:45;;;;;;;7.88;5.68;;;9.30;97.20;;;;;;1707976;28;20664;-77
2022/11/28 09:36:36;;;;;;;8.30;6.30;;;9.40;97.20;;;;;;1707813;28;20720;-77
2022/11/28 09:37:28;;;;;;;6.60;5.25;;;9.40;97.20;;;;;;1707965;28;20215;-77
2022/11/28 09:38:21;;;;;;;6.75;5.78;;;9.40;97.20;;;;;;1707975;28;20198;-77
2022/11/28 09:39:12;;;;;;;7.32;6.28;;;9.50;97.20;;;;;;1707748;28;20281;-77
2022/11/28 09:40:05;;;;;;;9.77;5.95;;;9.50;97.20;;;;;;1707863;28;20219;-77
2022/11/28 09:40:56;;;;;;;8.65;6.63;;;9.50;97.20;;;;;;1707618;28;20222;-77
2022/11/28 09:41:59;;;;;;;10.13;6.47;;;9.50;97.20;;;;;;1707863;28;20210;-76
2022/11/28 09:42:50;;;;;;;8.38;6.50;;;9.60;97.20;;;;;;1707812;28;20197;-77
2022/11/28 09:43:44;;;;;;;7.70;5.70;;;9.60;97.20;;;;;;1707921;28;20286;-77
2022/11/28 09:44:40;;;;;;;7.07;5.93;;;9.60;97.20;;;;;;1708259;28;20217;-77
2022/11/28 09:45:32;;;;;;;6.75;5.45;;;9.60;97.20;;;;;;1708429;28;20191;-76
2022/11/28 09:46:27;;;;;;;7.03;5.70;;;9.60;97.20;;;;;;1707890;28;20207;-77
2022/11/28 09:47:23;;;;;;;5.57;5.00;;;9.60;97.20;;;;;;1707514;28;20293;-77
2022/11/28 09:48:23;;;;;;;7.43;5.70;;;9.60;97.20;;;;;;1707909;28;20218;-76
2022/11/28 09:49:25;;;;;;;5.95;5.45;;;9.60;97.20;;;;;;1707800;28;20278;-77
2022/11/28 09:50:21;;;;;;;5.25;4.55;;;9.60;97.20;;;;;;1707557;28;20210;-77
2022/11/28 09:51:22;;;;;;;5.78;4.32;;;9.60;97.20;;;;;;1707819;28;20199;-77
2022/11/28 09:52:26;;;;;;;5.65;4.40;;;9.60;97.20;;;;;;1707827;28;20265;-77
2022/11/28 09:53:24;;;;;;;5.60;5.10;;;9.60;97.20;;;;;;1707702;28;20620;-77
2022/11/28 09:54:20;;;;;;;5.57;5.07;;;9.60;97.20;;;;;;1707927;28;20286;-77
2022/11/28 09:55:18;;;;;;;5.32;4.78;;;9.60;97.20;;;;;;1707808;28;20578;-77
2022/11/28 09:56:14;;;;;;;4.80;4.30;;;9.60;97.20;;;;;;1707952;28;20206;-77
2022/11/28 09:57:14;;;;;;;5.38;4.88;;;9.60;97.20;;;;;;1707688;28;20214;-77
2022/11/28 09:58:14;;;;;;;5.60;4.88;;;9.60;97.20;;;;;;1708035;28;20202;-77
2022/11/28 09:59:16;;;;;;;5.88;5.28;;;9.50;97.20;;;;;;1707257;28;20229;-77
2022/11/28 10:00:17;;;;;;;7.13;5.20;;;9.50;97.20;;;;;;1707694;28;20226;-77
2022/11/28 10:01:17;;;;;;;5.18;4.40;;;9.50;97.20;;;;;;1707542;28;22219;-76
2022/11/28 10:02:22;;;;;;;6.22;4.90;;;9.50;97.20;;;;;;1707801;28;20684;-77
2022/11/28 10:03:30;;;;;;;6.05;5.45;;;9.50;97.20;;;;;;1707814;28;20191;-77
2022/11/28 10:04:29;;;;;;;7.28;6.18;;;9.50;97.20;;;;;;1707797;28;20206;-77
2022/11/28 10:05:28;;;;;;;11.48;7.15;;;9.50;97.20;;;;;;1707746;28;20679;-77
2022/11/28 10:06:23;;;;;;;8.25;6.55;;;9.50;97.20;;;;;;1707644;28;20198;-77
2022/11/28 10:07:22;;;;;;;10.60;6.50;;;9.50;97.20;;;;;;1707287;28;20273;-77
2022/11/28 10:08:29;;;;;;;10.15;7.00;;;9.50;97.20;;;;;;1707651;28;20222;-76
2022/11/28 10:09:33;;;;;;;10.75;7.07;;;9.50;97.20;;;;;;1707317;28;20233;-77
2022/11/28 10:10:36;;;;;;;8.23;6.97;;;9.50;97.20;;;;;;1707634;28;20685;-77
2022/11/28 10:11:44;;;;;;;7.10;6.00;;;9.50;97.20;;;;;;1707751;28;20210;-77
2022/11/28 10:12:44;;;;;;;6.68;6.00;;;9.50;97.20;;;;;;1707625;28;20668;-77
2022/11/28 10:13:44;;;;;;;8.45;5.88;;;9.50;97.20;;;;;;1707660;28;20209;-77
2022/11/28 10:14:57;;;;;;;8.32;5.78;;;9.50;97.20;;;;;;1707742;28;20239;-77
2022/11/28 10:15:59;;;;;;;6.05;5.38;;;9.60;97.20;;;;;;1708052;28;20217;-77
2022/11/28 10:16:54;;;;;;;6.35;5.75;;;9.60;97.20;;;;;;1707969;28;20197;-77
2022/11/28 10:17:56;;;;;;;7.72;5.20;;;9.60;97.20;;;;;;1708162;28;20209;-76
2022/11/28 10:18:52;;;;;;;6.88;5.45;;;9.60;97.20;;;;;;1707288;28;20207;-77
2022/11/28 10:19:48;;;;;;;6.10;5.50;;;9.70;97.20;;;;;;1708077;28;20210;-77
2022/11/28 10:20:44;;;;;;;6.57;5.80;;;9.70;97.20;;;;;;1707946;28;20222;-77
2022/11/28 10:21:40;;;;;;;5.82;5.22;;;9.70;97.20;;;;;;1707911;28;20211;-77
2022/11/28 10:22:40;;;;;;;6.03;5.53;;;9.70;97.20;;;;;;1707956;28;20203;-77
2022/11/28 10:23:38;;;;;;;5.60;5.10;;;9.70;97.20;;;;;;1701252;29;20214;-77
2022/11/28 10:24:37;;;;;;;5.78;4.95;;;9.80;97.20;;;;;;1701214;29;20234;-77
2022/11/28 10:25:31;;;;;;;4.95;4.55;;;9.80;97.20;;;;;;1701466;29;20195;-77
2022/11/28 10:26:30;;;;;;;5.65;5.15;;;9.80;97.20;;;;;;1701324;29;20583;-77
2022/11/28 10:27:28;;;;;;;6.18;5.20;;;9.80;97.20;;;;;;1701068;29;20195;-77
2022/11/28 10:28:24;;;;;;;5.50;5.00;;;9.80;97.20;;;;;;1701325;29;20693;-77
2022/11/28 10:29:24;;;;;;;10.07;5.90;;;9.90;97.20;;;;;;1701148;29;20289;-77
2022/11/28 10:30:21;;;;;;;6.07;5.47;;;9.90;97.20;;;;;;1700872;29;20202;-76
2022/11/28 10:31:18;;;;;;;6.93;5.07;;;9.90;97.20;;;;;;1701200;29;20273;-77
2022/11/28 10:32:14;;;;;;;6.25;4.80;;;9.90;97.20;;;;;;1701494;29;20203;-77
2022/11/28 10:33:15;;;;;;;5.80;5.22;;;10.00;97.20;;;;;;1701376;29;20207;-77
2022/11/28 10:34:14;;;;;;;9.27;5.28;;;10.00;97.20;;;;;;1701463;29;20188;-78
2022/11/28 10:35:13;;;;;;;6.85;5.20;;;10.00;97.20;;;;;;1701402;29;20199;-77
2022/11/28 10:36:07;;;;;;;5.20;4.70;;;10.00;97.20;;;;;;1701253;29;20696;-78
2022/11/28 10:37:03;;;;;;;5.63;5.00;;;10.00;97.20;;;;;;1700895;29;20214;-77
2022/11/28 10:37:55;;;;;;;7.10;4.90;;;10.00;97.20;;;;;;1701406;29;20214;-78
2022/11/28 10:38:47;;;;;;;6.50;5.88;;;10.00;97.20;;;;;;1701940;29;20214;-77